createdAt,value
2023-01-12T00:01:54.305Z,0.50
2023-01-12T00:04:27.394Z,0.70
2023-01-12T00:06:54.822Z,1.10
2023-01-12T00:09:21.686Z,0.20
2023-01-12T00:11:48.407Z,0.70
2023-01-12T00:14:15.110Z,0.50
2023-01-12T00:16:42.412Z,0.80
2023-01-12T00:19:19.892Z,0.52
2023-01-12T00:21:58.538Z,0.68
2023-01-12T00:24:30.866Z,0.57
2023-01-12T00:26:59.627Z,0.50
2023-01-12T00:29:27.492Z,0.32
2023-01-12T00:31:55.930Z,0.52
2023-01-12T00:34:22.823Z,0.95
2023-01-12T00:36:50.153Z,0.60
2023-01-12T00:39:17.335Z,0.77
2023-01-12T00:42:03.548Z,0.95
2023-01-12T00:44:49.379Z,0.50
2023-01-12T00:47:17.039Z,1.17
2023-01-12T00:49:43.965Z,0.30
2023-01-12T00:52:24.945Z,0.70
2023-01-12T00:54:56.392Z,0.30
2023-01-12T00:57:23.109Z,0.43
2023-01-12T00:59:49.811Z,0.47
2023-01-12T01:02:16.577Z,0.45
2023-01-12T01:04:43.409Z,0.65
2023-01-12T01:07:10.179Z,0.35
2023-01-12T01:09:36.903Z,0.50
2023-01-12T01:12:03.682Z,0.50
2023-01-12T01:14:30.446Z,0.63
2023-01-12T01:16:57.112Z,0.70
2023-01-12T01:19:23.926Z,0.50
2023-01-12T01:21:50.692Z,0.50
2023-01-12T01:24:17.491Z,0.52
2023-01-12T01:26:44.195Z,0.40
2023-01-12T01:29:17.302Z,0.80
2023-01-12T01:31:44.033Z,0.75
2023-01-12T01:34:10.696Z,0.63
2023-01-12T01:36:37.361Z,0.30
2023-01-12T01:39:04.042Z,0.65
2023-01-12T01:41:32.633Z,0.43
2023-01-12T01:44:26.363Z,0.30
2023-01-12T01:47:00.644Z,0.50
2023-01-12T01:49:37.394Z,0.28
2023-01-12T01:52:10.897Z,0.90
2023-01-12T01:54:42.282Z,0.68
2023-01-12T01:57:12.361Z,0.77
2023-01-12T01:59:44.040Z,0.22
2023-01-12T02:02:11.409Z,0.30
2023-01-12T02:04:38.581Z,0.80
2023-01-12T02:07:06.794Z,0.28
2023-01-12T02:09:33.591Z,0.85
2023-01-12T02:12:20.390Z,0.90
2023-01-12T02:15:08.902Z,0.38
2023-01-12T02:17:49.502Z,0.30
2023-01-12T02:20:48.281Z,0.32
2023-01-12T02:23:26.975Z,0.30
2023-01-12T02:26:26.998Z,0.45
2023-01-12T02:29:19.192Z,0.50
2023-01-12T02:32:13.699Z,0.32
2023-01-12T02:34:55.524Z,0.50
2023-01-12T02:37:29.205Z,0.25
2023-01-12T02:40:23.654Z,0.70
2023-01-12T02:43:01.651Z,0.52
2023-01-12T02:46:06.997Z,0.60
2023-01-12T02:48:38.678Z,0.32
2023-01-12T02:51:10.239Z,0.60
2023-01-12T02:54:05.498Z,0.30
2023-01-12T02:56:36.358Z,0.40
2023-01-12T02:59:12.899Z,0.40
2023-01-12T03:01:41.044Z,0.50
2023-01-12T03:04:08.947Z,0.68
2023-01-12T03:06:45.482Z,0.40
2023-01-12T03:09:14.559Z,1.20
2023-01-12T03:11:43.388Z,0.60
2023-01-12T03:14:12.242Z,0.60
2023-01-12T03:16:40.250Z,1.15
2023-01-12T03:19:19.559Z,0.52
2023-01-12T03:21:55.005Z,0.73
2023-01-12T03:24:27.428Z,0.50
2023-01-12T03:27:00.559Z,0.98
2023-01-12T03:29:35.294Z,0.30
2023-01-12T03:32:02.338Z,0.50
2023-01-12T03:34:29.150Z,0.43
2023-01-12T03:36:59.227Z,0.32
2023-01-12T03:39:42.207Z,0.40
2023-01-12T03:42:25.999Z,0.57
2023-01-12T03:45:22.411Z,0.65
2023-01-12T03:47:55.792Z,0.82
2023-01-12T03:50:28.824Z,0.55
2023-01-12T03:52:57.414Z,0.38
2023-01-12T03:55:26.206Z,0.75
2023-01-12T03:57:53.868Z,0.65
2023-01-12T04:00:22.543Z,0.25
2023-01-12T04:02:49.193Z,0.38
2023-01-12T04:05:16.404Z,0.40
2023-01-12T04:07:43.063Z,0.43
2023-01-12T04:10:10.223Z,0.50
2023-01-12T04:12:36.885Z,0.25
2023-01-12T04:15:03.851Z,0.20
2023-01-12T04:17:30.613Z,0.43
2023-01-12T04:19:57.264Z,0.32
2023-01-12T04:22:42.540Z,0.30
2023-01-12T04:25:11.393Z,0.45
2023-01-12T04:27:42.816Z,0.40
2023-01-12T04:30:11.267Z,0.47
2023-01-12T04:32:40.141Z,0.40
2023-01-12T04:35:07.095Z,0.25
2023-01-12T04:37:34.129Z,0.25
2023-01-12T04:40:01.274Z,0.47
2023-01-12T04:42:47.159Z,0.28
2023-01-12T04:45:22.406Z,0.28
2023-01-12T04:47:51.099Z,0.40
2023-01-12T04:50:17.828Z,0.30
2023-01-12T04:52:45.274Z,0.55
2023-01-12T04:55:11.992Z,0.40
2023-01-12T04:57:38.641Z,0.22
2023-01-12T05:00:06.608Z,0.47
2023-01-12T05:02:33.505Z,0.30
2023-01-12T05:05:00.170Z,0.52
2023-01-12T05:07:26.878Z,0.57
2023-01-12T05:10:12.173Z,0.50
2023-01-12T05:12:38.826Z,0.40
2023-01-12T05:15:06.162Z,0.40
2023-01-12T05:17:33.251Z,0.32
2023-01-12T05:20:00.898Z,0.35
2023-01-12T05:22:27.988Z,0.30
2023-01-12T05:24:56.732Z,0.30
2023-01-12T05:27:23.423Z,0.52
2023-01-12T05:29:50.114Z,0.55
2023-01-12T05:32:16.772Z,0.20
2023-01-12T05:34:43.436Z,0.40
2023-01-12T05:37:10.143Z,0.88
2023-01-12T05:39:36.800Z,0.38
2023-01-12T05:42:22.102Z,0.38
2023-01-12T05:44:53.863Z,0.60
2023-01-12T05:47:20.590Z,0.30
2023-01-12T05:49:47.262Z,0.50
2023-01-12T05:52:38.896Z,0.40
2023-01-12T05:55:05.997Z,0.50
2023-01-12T05:57:32.692Z,0.50
2023-01-12T05:59:59.357Z,0.15
2023-01-12T06:02:26.149Z,0.43
2023-01-12T06:04:53.221Z,0.30
2023-01-12T06:07:20.746Z,0.40
2023-01-12T06:09:47.428Z,0.35
2023-01-12T06:12:32.704Z,0.85
2023-01-12T06:15:00.782Z,0.32
2023-01-12T06:17:28.529Z,0.40
2023-01-12T06:19:55.298Z,0.30
2023-01-12T06:23:17.421Z,0.38
2023-01-12T06:26:09.640Z,0.43
2023-01-12T06:28:38.563Z,0.30
2023-01-12T06:31:09.093Z,0.60
2023-01-12T06:33:36.259Z,0.25
2023-01-12T06:36:04.089Z,0.40
2023-01-12T06:38:32.728Z,0.50
2023-01-12T06:41:32.910Z,0.28
2023-01-12T06:43:59.847Z,0.50
2023-01-12T06:46:34.754Z,0.22
2023-01-12T06:49:01.478Z,0.28
2023-01-12T06:51:28.156Z,0.10
2023-01-12T06:54:24.697Z,0.57
2023-01-12T06:56:56.570Z,0.57
2023-01-12T06:59:23.254Z,0.32
2023-01-12T07:01:49.975Z,0.50
2023-01-12T07:04:16.745Z,0.70
2023-01-12T07:06:43.426Z,0.63
2023-01-12T07:09:10.148Z,0.30
2023-01-12T07:11:36.813Z,0.30
2023-01-12T07:14:03.576Z,0.17
2023-01-12T07:16:30.226Z,0.30
2023-01-12T07:18:56.998Z,0.57
2023-01-12T07:21:24.101Z,0.32
2023-01-12T07:23:50.785Z,0.40
2023-01-12T07:26:17.491Z,0.40
2023-01-12T07:28:44.184Z,0.40
2023-01-12T07:31:10.908Z,0.20
2023-01-12T07:34:46.939Z,0.32
2023-01-12T07:37:13.607Z,0.30
2023-01-12T07:39:41.283Z,0.30
2023-01-12T07:42:23.677Z,0.75
2023-01-12T07:44:51.363Z,0.55
2023-01-12T07:47:18.038Z,0.30
2023-01-12T07:49:44.729Z,0.47
2023-01-12T07:52:12.343Z,0.40
2023-01-12T07:54:40.216Z,0.40
2023-01-12T07:57:12.286Z,0.30
2023-01-12T07:59:42.173Z,0.40
2023-01-12T08:02:16.327Z,0.68
2023-01-12T08:04:44.050Z,0.15
2023-01-12T08:07:10.805Z,0.68
2023-01-12T08:09:42.624Z,0.43
2023-01-12T08:12:09.326Z,0.57
2023-01-12T08:14:38.320Z,2.28
2023-01-12T08:17:16.207Z,3.88
2023-01-12T08:19:56.165Z,2.05
2023-01-12T08:22:30.795Z,1.05
2023-01-12T08:25:09.387Z,0.73
2023-01-12T08:27:39.487Z,1.58
2023-01-12T08:30:08.710Z,2.55
2023-01-12T08:35:04.300Z,1.77
2023-01-12T08:37:33.725Z,2.63
2023-01-12T08:40:00.841Z,2.70
2023-01-12T08:42:29.663Z,1.63
2023-01-12T08:44:57.514Z,0.88
2023-01-12T08:47:27.104Z,1.40
2023-01-12T08:50:01.725Z,0.82
2023-01-12T08:52:32.834Z,1.48
2023-01-12T08:55:00.675Z,1.40
2023-01-12T08:57:27.381Z,1.30
2023-01-12T08:59:54.030Z,1.65
2023-01-12T09:02:20.721Z,2.40
2023-01-12T09:05:13.068Z,3.47
2023-01-12T09:07:40.713Z,2.00
2023-01-12T09:10:08.039Z,0.77
2023-01-12T09:12:35.704Z,1.33
2023-01-12T09:15:02.371Z,0.90
2023-01-12T09:17:29.029Z,0.40
2023-01-12T09:19:55.764Z,0.57
2023-01-12T09:22:23.069Z,0.40
2023-01-12T09:24:49.734Z,0.65
2023-01-12T09:27:16.487Z,0.60
2023-01-12T09:29:43.137Z,0.30
2023-01-12T09:32:09.812Z,0.40
2023-01-12T09:34:36.498Z,0.40
2023-01-12T09:37:03.185Z,0.30
2023-01-12T09:39:31.011Z,0.20
2023-01-12T09:42:17.254Z,0.20
2023-01-12T09:45:40.285Z,0.30
2023-01-12T09:48:11.993Z,0.82
2023-01-12T09:50:54.383Z,0.40
2023-01-12T09:53:31.163Z,0.20
2023-01-12T09:56:24.473Z,0.38
2023-01-12T09:59:41.774Z,0.15
2023-01-12T10:02:13.287Z,0.20
2023-01-12T10:04:40.729Z,0.13
2023-01-12T10:07:16.140Z,0.20
2023-01-12T10:12:34.169Z,0.13
2023-01-12T10:15:02.836Z,0.10
2023-01-12T10:17:46.050Z,0.20
2023-01-12T10:23:01.293Z,0.00
2023-01-12T10:25:39.693Z,0.30
2023-01-12T10:28:12.436Z,0.20
2023-01-12T10:30:41.068Z,0.28
2023-01-12T10:33:15.445Z,0.10
2023-01-12T10:36:03.275Z,0.10
2023-01-12T10:38:30.140Z,0.10
2023-01-12T10:41:24.306Z,0.10
2023-01-12T10:44:00.324Z,0.10
2023-01-12T10:46:31.539Z,0.10
2023-01-12T10:49:38.210Z,0.00
2023-01-12T10:52:39.613Z,0.00
2023-01-12T10:55:06.550Z,0.10
2023-01-12T10:57:33.951Z,0.00
2023-01-12T11:00:02.739Z,0.00
2023-01-12T11:02:43.344Z,0.00
2023-01-12T11:05:38.703Z,0.10
2023-01-12T11:08:29.369Z,0.13
2023-01-12T11:11:15.881Z,0.00
2023-01-12T11:13:46.211Z,0.00
2023-01-12T11:16:25.094Z,0.17
2023-01-12T11:19:03.754Z,0.00
2023-01-12T11:21:36.690Z,0.00
2023-01-12T11:24:06.322Z,0.00
2023-01-12T11:26:43.064Z,0.43
2023-01-12T11:29:28.035Z,0.10
2023-01-12T11:32:00.874Z,0.30
2023-01-12T11:34:33.210Z,0.20
2023-01-12T11:37:12.206Z,0.30
2023-01-12T11:39:43.708Z,0.30
2023-01-12T11:42:39.215Z,0.20
2023-01-12T11:45:15.066Z,0.08
2023-01-12T11:47:48.726Z,0.10
2023-01-12T11:50:24.615Z,0.08
2023-01-12T11:52:56.243Z,0.10
2023-01-12T11:55:55.167Z,0.10
2023-01-12T11:58:48.336Z,0.10
2023-01-12T12:01:23.316Z,0.10
2023-01-12T12:03:59.349Z,0.47
2023-01-12T12:06:48.918Z,0.30
2023-01-12T12:09:31.773Z,0.00
2023-01-12T12:12:02.265Z,0.35
2023-01-12T12:15:01.692Z,0.10
2023-01-12T12:17:47.756Z,0.35
2023-01-12T12:20:17.546Z,0.30
2023-01-12T12:22:56.817Z,0.45
2023-01-12T12:25:23.619Z,0.32
2023-01-12T12:27:56.319Z,0.10
2023-01-12T12:30:38.088Z,0.10
2023-01-12T12:33:21.199Z,0.10
2023-01-12T12:36:11.548Z,0.10
2023-01-12T12:38:54.191Z,0.20
2023-01-12T12:42:07.679Z,0.00
2023-01-12T12:45:02.166Z,0.00
2023-01-12T12:47:38.080Z,0.05
2023-01-12T12:50:18.665Z,0.10
2023-01-12T12:52:50.673Z,0.10
2023-01-12T12:55:17.833Z,0.00
2023-01-12T12:58:18.522Z,0.00
2023-01-12T13:00:46.705Z,0.00
2023-01-12T13:03:35.476Z,0.00
2023-01-12T13:06:21.067Z,0.10
2023-01-12T13:08:50.947Z,0.20
2023-01-12T13:11:19.274Z,0.00
2023-01-12T13:14:01.124Z,0.00
2023-01-12T13:16:32.284Z,0.13
2023-01-12T13:18:58.936Z,0.10
2023-01-12T13:21:55.931Z,0.00
2023-01-12T13:24:37.957Z,0.17
2023-01-12T13:27:43.531Z,0.10
2023-01-12T13:30:38.577Z,0.25
2023-01-12T13:33:17.400Z,0.30
2023-01-12T13:35:47.041Z,0.25
2023-01-12T13:38:33.811Z,0.52
2023-01-12T13:41:52.238Z,0.03
2023-01-12T13:47:03.925Z,0.10
2023-01-12T13:49:36.128Z,0.35
2023-01-12T13:52:05.989Z,0.10
2023-01-12T13:54:35.070Z,0.20
2023-01-12T13:57:06.336Z,0.17
2023-01-12T13:59:34.820Z,0.10
2023-01-12T14:02:02.255Z,0.00
2023-01-12T14:04:58.476Z,0.13
2023-01-12T14:07:55.867Z,0.00
2023-01-12T14:10:53.521Z,0.10
2023-01-12T14:13:30.047Z,0.10
2023-01-12T14:16:20.025Z,0.20
2023-01-12T14:18:49.661Z,0.13
2023-01-12T14:21:37.774Z,0.20
2023-01-12T14:24:16.421Z,0.13
2023-01-12T14:26:43.389Z,0.20
2023-01-12T14:29:13.678Z,0.10
2023-01-12T14:31:44.553Z,0.30
2023-01-12T14:34:34.945Z,0.55
2023-01-12T14:37:04.092Z,0.35
2023-01-12T14:42:22.801Z,0.22
2023-01-12T14:45:14.295Z,0.20
2023-01-12T14:47:42.113Z,0.57
2023-01-12T14:50:21.569Z,0.20
2023-01-12T14:52:49.035Z,0.10
2023-01-12T14:55:26.422Z,0.40
2023-01-12T14:57:57.371Z,0.10
2023-01-12T15:00:30.521Z,0.28
2023-01-12T15:03:00.317Z,0.08
2023-01-12T15:05:29.043Z,0.10
2023-01-12T15:07:59.359Z,0.10
2023-01-12T15:10:30.650Z,0.00
2023-01-12T15:13:12.906Z,0.10
2023-01-12T15:15:58.215Z,0.03
2023-01-12T15:18:45.652Z,0.00
2023-01-12T15:21:30.919Z,0.20
2023-01-12T15:24:16.142Z,0.40
2023-01-12T15:26:42.826Z,0.13
2023-01-12T15:29:09.469Z,0.20
2023-01-12T15:31:38.071Z,0.20
2023-01-12T15:34:06.241Z,0.28
2023-01-12T15:36:32.867Z,0.20
2023-01-12T15:38:59.621Z,0.00
2023-01-12T15:41:48.008Z,0.15
2023-01-12T15:44:17.326Z,0.05
2023-01-12T15:46:44.235Z,0.10
2023-01-12T15:49:24.223Z,0.20
2023-01-12T15:51:51.509Z,0.30
2023-01-12T15:54:20.200Z,0.40
2023-01-12T15:56:53.811Z,0.20
2023-01-12T15:59:20.458Z,0.20
2023-01-12T16:01:48.637Z,0.40
2023-01-12T16:07:06.114Z,0.20
2023-01-12T16:09:32.758Z,0.40
2023-01-12T16:11:59.423Z,0.52
2023-01-12T16:14:26.109Z,0.40
2023-01-12T16:16:52.808Z,0.17
2023-01-12T16:19:21.517Z,0.10
2023-01-12T16:22:20.943Z,0.00
2023-01-12T16:24:51.848Z,0.08
2023-01-12T16:27:46.409Z,0.10
2023-01-12T16:30:15.440Z,0.10
2023-01-12T16:32:46.227Z,0.10
2023-01-12T16:35:14.099Z,0.20
2023-01-12T16:37:40.891Z,0.20
2023-01-12T16:40:09.617Z,0.10
2023-01-12T16:42:38.431Z,0.10
2023-01-12T16:45:06.141Z,0.10
2023-01-12T16:47:32.796Z,0.20
2023-01-12T16:49:59.888Z,0.10
2023-01-12T16:52:26.923Z,0.13
2023-01-12T16:54:53.665Z,0.10
2023-01-12T16:57:20.348Z,0.10
2023-01-12T16:59:47.326Z,0.00
2023-01-12T17:02:16.063Z,0.20
2023-01-12T17:04:43.681Z,0.20
2023-01-12T17:07:11.395Z,0.10
2023-01-12T17:09:39.260Z,0.20
2023-01-12T17:12:06.764Z,0.10
2023-01-12T17:14:34.743Z,0.10
2023-01-12T17:17:08.224Z,0.38
2023-01-12T17:19:36.613Z,0.00
2023-01-12T17:22:06.647Z,0.22
2023-01-12T17:24:34.820Z,0.15
2023-01-12T17:27:01.751Z,0.13
2023-01-12T17:29:28.991Z,0.22
2023-01-12T17:32:03.293Z,0.08
2023-01-12T17:34:35.784Z,0.00
2023-01-12T17:37:04.110Z,0.00
2023-01-12T17:39:31.015Z,0.00
2023-01-12T17:42:17.236Z,0.05
2023-01-12T17:44:44.276Z,0.00
2023-01-12T17:47:11.723Z,0.10
2023-01-12T17:49:38.741Z,0.00
2023-01-12T17:52:06.332Z,0.10
2023-01-12T17:54:33.456Z,0.00
2023-01-12T17:57:00.168Z,0.20
2023-01-12T17:59:26.924Z,0.10
2023-01-12T18:01:55.292Z,0.40
2023-01-12T18:04:22.157Z,0.10
2023-01-12T18:06:48.875Z,0.10
2023-01-12T18:09:15.759Z,0.10
2023-01-12T18:11:42.479Z,0.03
2023-01-12T18:14:09.768Z,0.10
2023-01-12T18:16:36.525Z,0.00
2023-01-12T18:19:10.171Z,0.10
2023-01-12T18:21:36.925Z,0.00
2023-01-12T18:24:03.845Z,0.00
2023-01-12T18:26:33.004Z,0.10
2023-01-12T18:31:32.858Z,0.10
2023-01-12T18:34:07.837Z,0.10
2023-01-12T18:36:40.014Z,0.08
2023-01-12T18:39:08.881Z,0.10
2023-01-12T18:41:54.779Z,0.10
2023-01-12T18:44:22.574Z,0.05
2023-01-12T18:47:09.531Z,0.08
2023-01-12T18:49:36.913Z,0.10
2023-01-12T18:52:22.775Z,0.10
2023-01-12T18:54:51.675Z,0.00
2023-01-12T18:57:20.667Z,0.10
2023-01-12T18:59:49.129Z,0.20
2023-01-12T19:02:19.955Z,0.10
2023-01-12T19:04:50.200Z,0.20
2023-01-12T19:07:48.090Z,0.35
2023-01-12T19:10:15.047Z,0.00
2023-01-12T19:12:45.638Z,0.00
2023-01-12T19:15:32.087Z,0.00
2023-01-12T19:17:58.947Z,0.00
2023-01-12T19:20:31.753Z,0.10
2023-01-12T19:23:17.017Z,0.20
2023-01-12T19:26:12.976Z,0.00
2023-01-12T19:28:40.729Z,0.00
2023-01-12T19:31:10.882Z,0.20
2023-01-12T19:33:39.335Z,0.10
2023-01-12T19:36:10.150Z,0.13
2023-01-12T19:38:37.639Z,0.17
2023-01-12T19:41:32.779Z,0.10
2023-01-12T19:44:01.320Z,0.10
2023-01-12T19:46:28.032Z,0.10
2023-01-12T19:48:54.740Z,0.00
2023-01-12T19:51:21.377Z,0.10
2023-01-12T19:53:48.048Z,0.00
2023-01-12T19:56:14.781Z,0.13
2023-01-12T19:58:42.179Z,0.20
2023-01-12T20:01:09.003Z,0.10
2023-01-12T20:03:36.212Z,0.13
2023-01-12T20:06:07.492Z,0.20
2023-01-12T20:08:34.240Z,0.10
2023-01-12T20:11:05.093Z,0.03
2023-01-12T20:13:32.821Z,0.00
2023-01-12T20:15:59.748Z,0.10
2023-01-12T20:18:26.578Z,0.03
2023-01-12T20:20:55.378Z,0.10
2023-01-12T20:23:22.063Z,0.08
2023-01-12T20:25:48.871Z,0.10
2023-01-12T20:28:17.585Z,0.10
2023-01-12T20:30:44.702Z,0.10
2023-01-12T20:33:12.088Z,0.17
2023-01-12T20:35:47.975Z,0.10
2023-01-12T20:38:16.691Z,0.05
2023-01-12T20:40:46.060Z,0.10
2023-01-12T20:43:12.830Z,0.08
2023-01-12T20:45:41.721Z,0.28
2023-01-12T20:48:09.361Z,0.13
2023-01-12T20:50:36.550Z,0.10
2023-01-12T20:53:03.327Z,0.00
2023-01-12T20:55:30.086Z,0.10
2023-01-12T20:57:56.908Z,0.10
2023-01-12T21:00:23.568Z,0.10
2023-01-12T21:02:50.252Z,0.10
2023-01-12T21:05:16.930Z,0.00
2023-01-12T21:07:43.671Z,0.00
2023-01-12T21:10:11.914Z,0.10
2023-01-12T21:12:38.684Z,0.10
2023-01-12T21:15:06.133Z,0.10
2023-01-12T21:17:32.879Z,0.08
2023-01-12T21:19:59.607Z,0.00
2023-01-12T21:22:26.245Z,0.00
2023-01-12T21:24:52.894Z,0.05
2023-01-12T21:27:19.546Z,0.10
2023-01-12T21:29:46.266Z,0.00
2023-01-12T21:32:13.716Z,0.00
2023-01-12T21:34:40.370Z,0.00
2023-01-12T21:37:07.680Z,0.03
2023-01-12T21:39:34.360Z,0.00
2023-01-12T21:42:19.502Z,0.00
2023-01-12T21:44:46.137Z,0.00
2023-01-12T21:47:12.848Z,0.10
2023-01-12T21:49:39.524Z,0.00
2023-01-12T21:52:06.182Z,0.00
2023-01-12T21:54:32.817Z,0.03
2023-01-12T21:56:59.624Z,0.00
2023-01-12T21:59:26.314Z,0.00
2023-01-12T22:01:53.135Z,0.05
2023-01-12T22:04:19.956Z,0.10
2023-01-12T22:06:49.262Z,0.00
2023-01-12T22:11:42.519Z,0.10
2023-01-12T22:14:09.296Z,0.00
2023-01-12T22:16:36.033Z,0.17
2023-01-12T22:19:03.714Z,0.00
2023-01-12T22:21:30.505Z,0.00
2023-01-12T22:23:57.182Z,0.03
2023-01-12T22:26:23.817Z,0.10
2023-01-12T22:28:50.462Z,0.10
2023-01-12T22:31:23.486Z,0.00
2023-01-12T22:34:03.767Z,0.00
2023-01-12T22:36:34.615Z,0.10
2023-01-12T22:39:01.605Z,0.00
2023-01-12T22:41:28.271Z,0.00
2023-01-12T22:43:55.995Z,0.10
2023-01-12T22:46:24.779Z,0.10
2023-01-12T22:48:53.554Z,0.00
2023-01-12T22:51:21.935Z,0.00
2023-01-12T22:53:48.747Z,0.20
2023-01-12T22:56:15.447Z,0.10
2023-01-12T22:58:46.845Z,0.00
2023-01-12T23:01:14.858Z,0.05
2023-01-12T23:03:42.677Z,0.00
2023-01-12T23:06:14.226Z,0.00
2023-01-12T23:08:43.013Z,0.10
2023-01-12T23:11:12.951Z,0.17
2023-01-12T23:13:40.716Z,0.00
2023-01-12T23:16:09.492Z,0.10
2023-01-12T23:18:38.752Z,0.00
2023-01-12T23:21:11.637Z,0.10
2023-01-12T23:23:39.190Z,0.08
2023-01-12T23:26:09.029Z,0.10
2023-01-12T23:28:41.113Z,0.10
2023-01-12T23:31:10.901Z,0.00
2023-01-12T23:33:39.690Z,0.10
2023-01-12T23:36:09.489Z,0.00
2023-01-12T23:38:36.536Z,0.00
2023-01-12T23:41:20.796Z,0.00
2023-01-12T23:43:49.338Z,0.00
2023-01-12T23:46:17.416Z,0.10
2023-01-12T23:48:44.410Z,0.00
2023-01-12T23:51:11.246Z,0.03
2023-01-12T23:53:38.072Z,0.00
2023-01-12T23:56:07.843Z,0.20
2023-01-12T23:58:34.703Z,0.00
